createdAt,value
2018-04-14T00:00:38.365Z,48.03
2018-04-14T00:03:04.372Z,47.23
2018-04-14T00:05:30.374Z,50.07
2018-04-14T00:07:56.432Z,47.10
2018-04-14T00:10:22.480Z,43.10
2018-04-14T00:12:48.525Z,49.60
2018-04-14T00:15:14.608Z,41.90
2018-04-14T00:17:41.348Z,51.13
2018-04-14T00:20:07.352Z,48.37
2018-04-14T00:22:33.604Z,45.90
2018-04-14T00:24:59.601Z,44.67
2018-04-14T00:27:25.666Z,46.57
2018-04-14T00:29:51.915Z,44.10
2018-04-14T00:32:17.948Z,44.17
2018-04-14T00:34:44.021Z,47.47
2018-04-14T00:37:10.069Z,44.77
2018-04-14T00:39:36.113Z,44.47
2018-04-14T00:42:02.176Z,46.77
2018-04-14T00:44:28.218Z,40.77
2018-04-14T00:46:54.258Z,42.17
2018-04-14T00:49:20.432Z,43.17
2018-04-14T00:51:46.457Z,43.73
2018-04-14T00:54:12.477Z,44.27
2018-04-14T00:56:38.521Z,41.90
2018-04-14T00:59:04.537Z,47.27
2018-04-14T01:01:30.616Z,46.67
2018-04-14T01:03:56.712Z,44.17
2018-04-14T01:06:22.721Z,46.10
2018-04-14T01:08:48.720Z,45.57
2018-04-14T01:11:14.732Z,42.93
2018-04-14T01:13:41.157Z,43.53
2018-04-14T01:16:07.192Z,44.17
2018-04-14T01:18:33.273Z,44.47
2018-04-14T01:21:00.013Z,49.43
2018-04-14T01:23:26.028Z,41.90
2018-04-14T01:25:52.156Z,43.77
2018-04-14T01:28:18.163Z,43.47
2018-04-14T01:30:44.201Z,45.47
2018-04-14T01:33:10.200Z,42.43
2018-04-14T01:35:36.328Z,46.23
2018-04-14T01:38:02.404Z,46.63
2018-04-14T01:40:28.415Z,49.17
2018-04-14T01:42:54.508Z,49.87
2018-04-14T01:45:20.541Z,49.00
2018-04-14T01:47:46.560Z,51.40
2018-04-14T01:50:12.856Z,48.17
2018-04-14T01:52:38.864Z,45.77
2018-04-14T01:55:04.881Z,51.17
2018-04-14T01:57:30.884Z,48.23
2018-04-14T01:59:57.620Z,47.73
2018-04-14T02:02:23.941Z,48.80
2018-04-14T02:04:50.797Z,47.67
2018-04-14T02:07:18.116Z,46.73
2018-04-14T02:09:44.115Z,47.87
2018-04-14T02:12:10.129Z,50.33
2018-04-14T02:14:36.348Z,46.80
2018-04-14T02:17:02.374Z,49.13
2018-04-14T02:19:28.391Z,50.20
2018-04-14T02:21:54.521Z,50.67
2018-04-14T02:24:20.703Z,49.87
2018-04-14T02:26:46.712Z,48.77
2018-04-14T02:29:12.968Z,50.17
2018-04-14T02:31:38.983Z,46.63
2018-04-14T02:34:04.977Z,46.47
2018-04-14T02:36:31.172Z,45.20
2018-04-14T02:38:57.581Z,48.50
2018-04-14T02:41:23.612Z,50.53
2018-04-14T02:43:49.980Z,47.43
2018-04-14T02:46:16.390Z,45.07
2018-04-14T02:48:42.407Z,44.87
2018-04-14T02:51:08.407Z,44.87
2018-04-14T02:53:34.892Z,43.93
2018-04-14T02:56:00.953Z,44.40
2018-04-14T02:58:26.972Z,43.70
2018-04-14T03:00:53.000Z,45.93
2018-04-14T03:03:19.065Z,43.37
2018-04-14T03:05:45.098Z,45.70
2018-04-14T03:08:11.136Z,43.70
2018-04-14T03:10:37.149Z,45.23
2018-04-14T03:13:03.670Z,44.80
2018-04-14T03:15:30.049Z,45.10
2018-04-14T03:17:56.072Z,44.67
2018-04-14T03:20:22.418Z,43.63
2018-04-14T03:22:48.424Z,43.33
2018-04-14T03:25:14.573Z,46.37
2018-04-14T03:27:40.564Z,42.57
2018-04-14T03:30:06.620Z,48.20
2018-04-14T03:32:32.770Z,47.97
2018-04-14T03:34:58.768Z,44.60
2018-04-14T03:37:24.964Z,46.73
2018-04-14T03:39:51.020Z,43.60
2018-04-14T03:42:17.034Z,43.33
2018-04-14T03:44:43.033Z,47.70
2018-04-14T03:47:09.099Z,47.83
2018-04-14T03:49:35.305Z,45.97
2018-04-14T03:52:01.348Z,45.33
2018-04-14T03:54:28.074Z,45.00
2018-04-14T03:56:54.193Z,45.70
2018-04-14T03:59:20.216Z,46.10
2018-04-14T04:01:46.236Z,45.20
2018-04-14T04:04:12.692Z,46.13
2018-04-14T04:06:38.701Z,48.67
2018-04-14T04:09:04.711Z,47.27
2018-04-14T04:11:30.816Z,45.67
2018-04-14T04:13:56.942Z,46.60
2018-04-14T04:16:22.964Z,42.43
2018-04-14T04:19:01.667Z,43.87
2018-04-14T04:21:40.012Z,44.80
2018-04-14T04:24:18.308Z,46.73
2018-04-14T04:26:44.319Z,44.53
2018-04-14T04:29:10.472Z,44.00
2018-04-14T04:31:36.528Z,46.80
2018-04-14T04:34:02.547Z,46.07
2018-04-14T04:36:29.089Z,41.53
2018-04-14T04:38:55.094Z,43.07
2018-04-14T04:41:21.636Z,42.40
2018-04-14T04:43:47.635Z,41.90
2018-04-14T04:46:13.716Z,43.27
2018-04-14T04:48:39.763Z,41.17
2018-04-14T04:51:05.832Z,41.37
2018-04-14T04:53:32.176Z,43.13
2018-04-14T04:55:58.188Z,44.03
2018-04-14T04:58:24.265Z,43.97
2018-04-14T05:00:50.449Z,43.97
2018-04-14T05:03:16.665Z,42.10
2018-04-14T05:05:42.693Z,42.57
2018-04-14T05:08:08.716Z,41.80
2018-04-14T05:10:34.728Z,44.20
2018-04-14T05:13:00.736Z,41.07
2018-04-14T05:15:26.864Z,42.07
2018-04-14T05:17:53.008Z,43.47
2018-04-14T05:20:19.131Z,45.17
2018-04-14T05:22:45.586Z,45.87
2018-04-14T05:25:11.637Z,47.87
2018-04-14T05:27:37.680Z,44.67
2018-04-14T05:30:04.657Z,44.70
2018-04-14T05:32:30.677Z,46.90
2018-04-14T05:34:56.764Z,48.50
2018-04-14T05:37:22.784Z,48.93
2018-04-14T05:39:48.860Z,49.63
2018-04-14T05:42:14.928Z,49.73
2018-04-14T05:44:40.952Z,49.07
2018-04-14T05:47:07.332Z,49.87
2018-04-14T05:49:33.457Z,47.57
2018-04-14T05:51:59.521Z,48.53
2018-04-14T05:54:25.671Z,48.50
2018-04-14T05:56:51.705Z,48.13
2018-04-14T05:59:17.704Z,47.43
2018-04-14T06:01:43.724Z,49.90
2018-04-14T06:04:10.153Z,48.23
2018-04-14T06:06:36.247Z,48.13
2018-04-14T06:09:02.321Z,45.87
2018-04-14T06:11:29.364Z,49.33
2018-04-14T06:13:55.460Z,51.23
2018-04-14T06:16:21.481Z,50.43
2018-04-14T06:18:47.843Z,46.87
2018-04-14T06:21:13.956Z,49.93
2018-04-14T06:23:39.987Z,52.83
2018-04-14T06:26:05.998Z,54.57
2018-04-14T06:28:32.098Z,50.67
2018-04-14T06:30:58.189Z,53.37
2018-04-14T06:33:25.015Z,53.47
2018-04-14T06:35:51.973Z,54.87
2018-04-14T06:38:18.064Z,53.33
2018-04-14T06:40:44.524Z,53.13
2018-04-14T06:43:10.584Z,50.80
2018-04-14T06:45:36.920Z,55.90
2018-04-14T06:48:02.952Z,53.23
2018-04-14T06:50:29.073Z,52.80
2018-04-14T06:52:55.112Z,51.63
2018-04-14T06:55:21.108Z,51.57
2018-04-14T06:57:47.828Z,53.67
2018-04-14T07:00:13.892Z,53.33
2018-04-14T07:02:40.116Z,50.47
2018-04-14T07:05:06.149Z,52.80
2018-04-14T07:07:32.213Z,51.67
2018-04-14T07:09:58.354Z,51.20
2018-04-14T07:12:24.558Z,56.67
2018-04-14T07:14:50.640Z,53.63
2018-04-14T07:17:16.700Z,54.80
2018-04-14T07:19:42.713Z,56.00
2018-04-14T07:22:08.770Z,55.07
2018-04-14T07:24:34.817Z,54.43
2018-04-14T07:27:00.841Z,53.80
2018-04-14T07:29:27.632Z,55.13
2018-04-14T07:31:53.961Z,54.83
2018-04-14T07:34:20.148Z,54.57
2018-04-14T07:36:46.968Z,53.83
2018-04-14T07:39:13.032Z,55.80
2018-04-14T07:41:39.415Z,57.67
2018-04-14T07:44:05.760Z,57.50
2018-04-14T07:46:31.829Z,55.17
2018-04-14T07:48:57.846Z,57.40
2018-04-14T07:51:23.957Z,57.30
2018-04-14T07:53:50.136Z,57.23
2018-04-14T07:56:16.204Z,55.77
2018-04-14T07:58:42.552Z,57.33
2018-04-14T08:01:08.583Z,57.00
2018-04-14T08:03:34.661Z,55.43
2018-04-14T08:06:01.447Z,55.13
2018-04-14T08:08:27.445Z,54.87
2018-04-14T08:10:53.544Z,55.53
2018-04-14T08:13:19.927Z,54.27
2018-04-14T08:15:45.949Z,51.83
2018-04-14T08:18:12.392Z,54.17
2018-04-14T08:20:38.412Z,54.33
2018-04-14T08:23:04.436Z,53.80
2018-04-14T08:25:30.451Z,52.97
2018-04-14T08:27:56.601Z,51.33
2018-04-14T08:30:23.059Z,54.33
2018-04-14T08:32:49.349Z,54.63
2018-04-14T08:35:15.393Z,52.77
2018-04-14T08:37:41.405Z,50.67
2018-04-14T08:40:08.029Z,48.50
2018-04-14T08:42:34.037Z,49.00
2018-04-14T08:45:00.081Z,49.10
2018-04-14T08:47:26.163Z,50.57
2018-04-14T08:49:52.163Z,52.07
2018-04-14T08:52:18.189Z,48.70
2018-04-14T08:54:45.091Z,50.60
2018-04-14T08:57:11.188Z,49.77
2018-04-14T08:59:37.233Z,50.63
2018-04-14T09:02:03.443Z,48.97
2018-04-14T09:04:29.904Z,48.07
2018-04-14T09:06:55.926Z,48.70
2018-04-14T09:09:21.940Z,48.97
2018-04-14T09:11:48.116Z,48.40
2018-04-14T09:14:14.126Z,48.13
2018-04-14T09:16:40.176Z,50.80
2018-04-14T09:19:06.316Z,45.77
2018-04-14T09:21:32.332Z,45.37
2018-04-14T09:23:58.330Z,45.80
2018-04-14T09:26:24.436Z,49.77
2018-04-14T09:28:51.232Z,49.73
2018-04-14T09:31:17.606Z,49.60
2018-04-14T09:33:43.620Z,50.07
2018-04-14T09:36:09.624Z,49.53
2018-04-14T09:38:35.668Z,48.40
2018-04-14T09:41:01.873Z,48.40
2018-04-14T09:43:42.848Z,48.03
2018-04-14T09:46:09.282Z,48.03
2018-04-14T09:48:35.277Z,51.17
2018-04-14T09:51:01.292Z,52.00
2018-04-14T09:53:27.492Z,50.13
2018-04-14T09:55:53.549Z,51.03
2018-04-14T09:58:20.044Z,48.53
2018-04-14T10:00:52.196Z,49.23
2018-04-14T10:03:22.992Z,48.07
2018-04-14T10:05:49.075Z,48.67
2018-04-14T10:08:15.093Z,47.77
2018-04-14T10:10:41.172Z,50.23
2018-04-14T10:13:07.224Z,46.43
2018-04-14T10:15:33.309Z,46.80
2018-04-14T10:17:59.381Z,48.20
2018-04-14T10:20:26.169Z,48.07
2018-04-14T10:22:52.936Z,50.00
2018-04-14T10:25:18.977Z,48.87
2018-04-14T10:27:45.017Z,50.00
2018-04-14T10:30:11.779Z,49.00
2018-04-14T10:32:37.893Z,46.27
2018-04-14T10:35:04.300Z,47.03
2018-04-14T10:37:30.291Z,48.10
2018-04-14T10:39:56.311Z,49.30
2018-04-14T10:42:22.727Z,47.03
2018-04-14T10:44:49.072Z,47.60
2018-04-14T10:47:15.183Z,47.60
2018-04-14T10:49:41.178Z,44.37
2018-04-14T10:52:07.196Z,43.80
2018-04-14T10:54:33.276Z,44.33
2018-04-14T10:56:59.482Z,42.20
2018-04-14T10:59:25.849Z,46.60
2018-04-14T11:01:51.986Z,46.53
2018-04-14T11:04:18.000Z,47.07
2018-04-14T11:06:44.004Z,47.33
2018-04-14T11:09:10.024Z,51.00
2018-04-14T11:11:36.244Z,51.83
2018-04-14T11:14:02.268Z,52.60
2018-04-14T11:16:28.320Z,50.43
2018-04-14T11:18:54.369Z,48.10
2018-04-14T11:21:20.385Z,45.43
2018-04-14T11:23:46.497Z,42.83
2018-04-14T11:26:12.521Z,44.87
2018-04-14T11:28:38.521Z,44.03
2018-04-14T11:31:05.340Z,42.40
2018-04-14T11:33:31.560Z,46.83
2018-04-14T11:35:57.684Z,47.57
2018-04-14T11:38:23.676Z,47.43
2018-04-14T11:40:49.705Z,49.67
2018-04-14T11:43:15.833Z,48.23
2018-04-14T11:45:41.840Z,46.10
2018-04-14T11:48:07.861Z,47.07
2018-04-14T11:50:34.028Z,48.17
2018-04-14T11:53:15.005Z,47.87
2018-04-14T11:55:41.546Z,46.20
2018-04-14T11:58:07.550Z,46.47
2018-04-14T12:00:33.677Z,46.20
2018-04-14T12:03:00.470Z,43.40
2018-04-14T12:05:26.500Z,42.87
2018-04-14T12:07:52.806Z,46.17
2018-04-14T12:10:18.801Z,42.87
2018-04-14T12:12:44.809Z,43.13
2018-04-14T12:15:11.610Z,43.33
2018-04-14T12:17:37.661Z,42.13
2018-04-14T12:20:03.669Z,41.07
2018-04-14T12:22:30.425Z,42.20
2018-04-14T12:24:56.552Z,40.83
2018-04-14T12:27:22.604Z,39.23
2018-04-14T12:29:48.755Z,41.70
2018-04-14T12:32:14.769Z,40.47
2018-04-14T12:34:40.809Z,40.50
2018-04-14T12:37:06.969Z,43.47
2018-04-14T12:39:32.993Z,45.80
2018-04-14T12:41:59.003Z,43.10
2018-04-14T12:44:25.206Z,40.80
2018-04-14T12:46:51.212Z,43.83
2018-04-14T12:49:17.409Z,42.27
2018-04-14T12:51:43.428Z,43.03
2018-04-14T12:54:09.432Z,41.23
2018-04-14T12:56:35.709Z,43.10
2018-04-14T12:59:02.472Z,41.67
2018-04-14T13:01:28.468Z,39.17
2018-04-14T13:03:54.521Z,38.30
2018-04-14T13:06:20.540Z,39.43
2018-04-14T13:08:46.591Z,41.20
2018-04-14T13:11:13.364Z,43.20
2018-04-14T13:13:39.372Z,43.83
2018-04-14T13:16:05.441Z,41.90
2018-04-14T13:18:31.448Z,42.83
2018-04-14T13:20:57.485Z,44.90
2018-04-14T13:23:23.512Z,42.87
2018-04-14T13:25:49.897Z,42.53
2018-04-14T13:28:15.932Z,45.27
2018-04-14T13:30:41.944Z,42.30
2018-04-14T13:33:07.960Z,43.57
2018-04-14T13:35:34.386Z,43.73
2018-04-14T13:38:00.417Z,41.10
2018-04-14T13:40:27.324Z,37.97
2018-04-14T13:42:53.374Z,38.60
2018-04-14T13:45:19.407Z,38.87
2018-04-14T13:47:45.725Z,42.67
2018-04-14T13:50:11.724Z,40.83
2018-04-14T13:52:37.756Z,41.47
2018-04-14T13:55:03.797Z,40.87
2018-04-14T13:57:29.821Z,36.97
2018-04-14T13:59:55.981Z,36.93
2018-04-14T14:02:22.745Z,37.43
2018-04-14T14:04:48.756Z,40.07
2018-04-14T14:07:14.925Z,40.30
2018-04-14T14:09:40.932Z,40.10
2018-04-14T14:12:06.931Z,40.23
2018-04-14T14:14:32.952Z,39.50
2018-04-14T14:16:58.944Z,39.20
2018-04-14T14:19:25.070Z,36.37
2018-04-14T14:21:51.533Z,36.67
2018-04-14T14:24:17.536Z,41.10
2018-04-14T14:26:43.542Z,40.50
2018-04-14T14:29:09.565Z,38.87
2018-04-14T14:31:35.627Z,38.37
2018-04-14T14:34:02.433Z,41.07
2018-04-14T14:36:28.447Z,40.70
2018-04-14T14:38:54.604Z,40.33
2018-04-14T14:41:21.404Z,40.77
2018-04-14T14:43:47.412Z,37.80
2018-04-14T14:46:13.542Z,38.43
2018-04-14T14:48:40.292Z,38.93
2018-04-14T14:51:06.309Z,36.97
2018-04-14T14:53:32.329Z,35.63
2018-04-14T14:55:58.344Z,33.97
2018-04-14T14:58:24.393Z,34.20
2018-04-14T15:00:50.829Z,34.27
2018-04-14T15:03:16.867Z,34.83
2018-04-14T15:05:42.876Z,35.17
2018-04-14T15:08:08.880Z,36.60
2018-04-14T15:10:34.945Z,39.57
2018-04-14T15:13:16.101Z,38.00
2018-04-14T15:15:42.180Z,38.87
2018-04-14T15:18:08.180Z,39.00
2018-04-14T15:20:34.180Z,38.97
2018-04-14T15:23:00.245Z,38.17
2018-04-14T15:25:26.412Z,39.53
2018-04-14T15:27:52.682Z,39.67
2018-04-14T15:30:18.807Z,38.73
2018-04-14T15:32:44.854Z,40.67
2018-04-14T15:35:10.987Z,40.47
2018-04-14T15:37:37.016Z,37.93
2018-04-14T15:40:03.588Z,40.70
2018-04-14T15:42:29.597Z,38.13
2018-04-14T15:44:55.630Z,38.50
2018-04-14T15:47:21.795Z,38.87
2018-04-14T15:49:47.989Z,37.80
2018-04-14T15:52:14.000Z,39.17
2018-04-14T15:54:55.009Z,37.80
2018-04-14T15:57:21.534Z,37.20
2018-04-14T15:59:47.564Z,38.70
2018-04-14T16:02:13.699Z,36.33
2018-04-14T16:04:39.828Z,34.97
2018-04-14T16:07:05.840Z,34.37
2018-04-14T16:09:31.833Z,36.97
2018-04-14T16:11:57.876Z,36.30
2018-04-14T16:14:23.912Z,38.27
2018-04-14T16:16:49.914Z,38.53
2018-04-14T16:19:16.371Z,36.73
2018-04-14T16:21:42.396Z,35.37
2018-04-14T16:24:08.429Z,36.00
2018-04-14T16:26:34.469Z,37.23
2018-04-14T16:29:00.524Z,37.57
2018-04-14T16:31:27.365Z,37.60
2018-04-14T16:33:53.410Z,37.60
2018-04-14T16:36:20.157Z,37.50
2018-04-14T16:38:46.182Z,37.93
2018-04-14T16:41:12.201Z,38.50
2018-04-14T16:43:38.263Z,37.13
2018-04-14T16:46:04.308Z,36.00
2018-04-14T16:48:30.320Z,36.70
2018-04-14T16:50:56.348Z,36.70
2018-04-14T16:53:23.089Z,36.83
2018-04-14T16:55:49.784Z,36.60
2018-04-14T16:58:15.813Z,37.03
2018-04-14T17:00:41.836Z,36.77
2018-04-14T17:03:07.852Z,36.53
2018-04-14T17:05:33.856Z,35.60
2018-04-14T17:07:59.989Z,37.00
2018-04-14T17:10:26.032Z,38.47
2018-04-14T17:12:52.788Z,36.03
2018-04-14T17:15:18.920Z,36.60
2018-04-14T17:17:44.940Z,34.37
2018-04-14T17:20:10.932Z,34.90
2018-04-14T17:22:37.008Z,33.73
2018-04-14T17:25:03.184Z,35.13
2018-04-14T17:27:29.197Z,35.13
2018-04-14T17:29:55.937Z,36.50
2018-04-14T17:32:21.985Z,39.23
2018-04-14T17:34:48.043Z,37.63
2018-04-14T17:37:14.445Z,37.77
2018-04-14T17:39:40.466Z,36.90
2018-04-14T17:42:06.495Z,36.43
2018-04-14T17:44:32.546Z,36.97
2018-04-14T17:46:58.548Z,36.60
2018-04-14T17:49:24.564Z,40.13
2018-04-14T17:51:50.576Z,37.20
2018-04-14T17:54:16.720Z,37.20
2018-04-14T17:56:42.756Z,37.03
2018-04-14T17:59:08.768Z,37.83
2018-04-14T18:01:34.782Z,35.47
2018-04-14T18:04:00.793Z,36.03
2018-04-14T18:06:26.824Z,36.30
2018-04-14T18:08:52.876Z,38.17
2018-04-14T18:11:18.900Z,37.60
2018-04-14T18:13:44.900Z,38.93
2018-04-14T18:16:10.905Z,38.13
2018-04-14T18:18:38.060Z,38.13
2018-04-14T18:21:04.092Z,36.67
2018-04-14T18:23:30.116Z,36.80
2018-04-14T18:25:56.149Z,36.73
2018-04-14T18:28:22.217Z,38.63
2018-04-14T18:30:48.304Z,37.90
2018-04-14T18:33:14.324Z,37.67
2018-04-14T18:35:40.352Z,38.50
2018-04-14T18:38:06.415Z,37.90
2018-04-14T18:40:32.380Z,38.03
2018-04-14T18:42:58.473Z,39.03
2018-04-14T18:45:24.480Z,38.77
2018-04-14T18:47:50.493Z,38.53
2018-04-14T18:50:16.546Z,39.43
2018-04-14T18:52:42.552Z,40.17
2018-04-14T18:55:08.601Z,39.40
2018-04-14T18:57:34.656Z,40.63
2018-04-14T19:00:00.670Z,41.30
2018-04-14T19:02:26.762Z,40.17
2018-04-14T19:04:52.728Z,42.90
2018-04-14T19:07:18.857Z,40.93
2018-04-14T19:09:45.021Z,41.53
2018-04-14T19:12:11.063Z,43.10
2018-04-14T19:14:37.381Z,42.03
2018-04-14T19:17:03.412Z,42.53
2018-04-14T19:19:29.462Z,41.70
2018-04-14T19:21:55.527Z,41.50
2018-04-14T19:24:21.536Z,42.47
2018-04-14T19:26:47.536Z,42.87
2018-04-14T19:29:13.651Z,43.23
2018-04-14T19:31:40.428Z,43.97
2018-04-14T19:34:06.546Z,43.70
2018-04-14T19:36:32.588Z,41.13
2018-04-14T19:39:14.074Z,41.90
2018-04-14T19:41:40.101Z,43.77
2018-04-14T19:44:06.130Z,42.43
2018-04-14T19:46:32.333Z,44.03
2018-04-14T19:48:58.368Z,42.33
2018-04-14T19:51:24.394Z,43.90
2018-04-14T19:53:50.744Z,42.83
2018-04-14T19:56:16.864Z,44.63
2018-04-14T19:58:43.013Z,43.73
2018-04-14T20:01:09.028Z,44.87
2018-04-14T20:03:35.076Z,45.80
2018-04-14T20:06:01.090Z,44.43
2018-04-14T20:08:27.091Z,44.73
2018-04-14T20:10:53.693Z,44.10
2018-04-14T20:13:20.538Z,43.53
2018-04-14T20:15:46.548Z,44.17
2018-04-14T20:18:12.560Z,45.57
2018-04-14T20:20:38.603Z,45.10
2018-04-14T20:23:04.621Z,45.47
2018-04-14T20:25:31.696Z,45.93
2018-04-14T20:27:57.716Z,46.53
2018-04-14T20:30:24.136Z,45.00
2018-04-14T20:32:50.882Z,43.80
2018-04-14T20:35:16.880Z,44.77
2018-04-14T20:37:43.208Z,46.10
2018-04-14T20:40:09.259Z,46.57
2018-04-14T20:42:35.404Z,44.60
2018-04-14T20:45:01.841Z,46.37
2018-04-14T20:47:27.857Z,47.23
2018-04-14T20:49:53.920Z,44.63
2018-04-14T20:52:19.933Z,45.33
2018-04-14T20:54:45.989Z,46.07
2018-04-14T20:57:12.020Z,45.33
2018-04-14T20:59:38.024Z,46.13
2018-04-14T21:02:04.042Z,46.23
2018-04-14T21:04:30.055Z,46.33
2018-04-14T21:06:56.132Z,45.27
2018-04-14T21:09:22.232Z,46.43
2018-04-14T21:11:48.245Z,47.33
2018-04-14T21:14:14.329Z,49.20
2018-04-14T21:16:40.344Z,51.37
2018-04-14T21:19:06.387Z,51.37
2018-04-14T21:21:32.397Z,48.87
2018-04-14T21:23:58.436Z,49.50
2018-04-14T21:26:24.849Z,50.03
2018-04-14T21:28:50.864Z,48.63
2018-04-14T21:31:16.930Z,48.77
2018-04-14T21:33:42.940Z,49.37
2018-04-14T21:36:09.096Z,49.57
2018-04-14T21:38:35.176Z,51.93
2018-04-14T21:41:01.593Z,50.00
2018-04-14T21:43:27.600Z,51.77
2018-04-14T21:45:53.705Z,49.67
2018-04-14T21:48:19.768Z,49.47
2018-04-14T21:50:45.864Z,52.83
2018-04-14T21:53:12.073Z,51.10
2018-04-14T21:55:38.188Z,50.33
2018-04-14T21:58:04.189Z,50.10
2018-04-14T22:00:30.211Z,52.73
2018-04-14T22:02:56.299Z,50.60
2018-04-14T22:05:22.328Z,51.63
2018-04-14T22:07:48.336Z,51.83
2018-04-14T22:10:14.921Z,49.37
2018-04-14T22:12:40.990Z,51.10
2018-04-14T22:15:07.013Z,50.87
2018-04-14T22:17:33.047Z,52.03
2018-04-14T22:19:59.119Z,53.03
2018-04-14T22:22:25.187Z,52.30
2018-04-14T22:24:51.189Z,60.90
2018-04-14T22:27:17.216Z,67.47
2018-04-14T22:29:43.252Z,65.03
2018-04-14T22:32:09.269Z,71.47
2018-04-14T22:34:35.569Z,65.23
2018-04-14T22:37:01.592Z,63.87
2018-04-14T22:39:27.740Z,65.23
2018-04-14T22:41:53.795Z,70.20
2018-04-14T22:44:20.081Z,67.17
2018-04-14T22:46:46.137Z,65.77
2018-04-14T22:49:12.169Z,73.70
2018-04-14T22:51:38.221Z,78.37
2018-04-14T22:54:04.254Z,72.13
2018-04-14T22:56:30.305Z,77.07
2018-04-14T22:58:56.345Z,73.03
2018-04-14T23:01:22.852Z,82.03
2018-04-14T23:03:48.892Z,76.37
2018-04-14T23:06:14.905Z,77.87
2018-04-14T23:08:41.120Z,78.03
2018-04-14T23:11:07.129Z,77.83
2018-04-14T23:13:33.272Z,72.33
2018-04-14T23:15:59.392Z,75.93
2018-04-14T23:18:25.421Z,82.67
2018-04-14T23:20:51.426Z,83.43
2018-04-14T23:23:18.040Z,84.13
2018-04-14T23:25:44.048Z,87.30
2018-04-14T23:28:10.057Z,94.27
2018-04-14T23:30:36.096Z,78.40
2018-04-14T23:33:02.110Z,89.27
2018-04-14T23:35:28.486Z,84.27
2018-04-14T23:37:55.240Z,84.63
2018-04-14T23:40:21.360Z,83.03
2018-04-14T23:42:48.104Z,91.27
2018-04-14T23:45:14.204Z,88.47
2018-04-14T23:47:40.309Z,89.40
2018-04-14T23:50:06.600Z,84.97
2018-04-14T23:52:32.601Z,80.00
2018-04-14T23:54:58.642Z,93.97
2018-04-14T23:57:24.792Z,90.73
2018-04-14T23:59:50.832Z,86.13
